createdAt,value
2018-12-07T00:01:26.510Z,3.10
2018-12-07T00:03:55.311Z,2.90
2018-12-07T00:06:24.216Z,1.60
2018-12-07T00:08:53.005Z,3.73
2018-12-07T00:11:21.757Z,2.77
2018-12-07T00:13:50.493Z,3.50
2018-12-07T00:16:19.750Z,3.53
2018-12-07T00:18:48.505Z,3.83
2018-12-07T00:21:17.236Z,1.50
2018-12-07T00:23:46.015Z,4.17
2018-12-07T00:26:14.916Z,3.60
2018-12-07T00:28:43.661Z,2.73
2018-12-07T00:31:12.824Z,4.67
2018-12-07T00:33:41.588Z,2.53
2018-12-07T00:36:10.305Z,2.40
2018-12-07T00:38:39.052Z,4.37
2018-12-07T00:41:07.885Z,2.00
2018-12-07T00:43:36.612Z,3.80
2018-12-07T00:46:05.361Z,3.47
2018-12-07T00:48:34.510Z,2.50
2018-12-07T00:51:03.302Z,9.47
2018-12-07T00:53:34.568Z,2.60
2018-12-07T00:56:03.308Z,1.93
2018-12-07T00:58:32.032Z,3.07
2018-12-07T01:01:00.837Z,4.30
2018-12-07T01:03:29.604Z,2.03
2018-12-07T01:05:58.387Z,4.57
2018-12-07T01:08:27.384Z,3.77
2018-12-07T01:10:56.144Z,4.53
2018-12-07T01:13:24.907Z,3.60
2018-12-07T01:15:53.656Z,6.83
2018-12-07T01:18:22.375Z,5.97
2018-12-07T01:20:51.102Z,3.17
2018-12-07T01:23:19.900Z,6.07
2018-12-07T01:25:48.644Z,3.63
2018-12-07T01:28:17.400Z,3.20
2018-12-07T01:30:46.164Z,3.10
2018-12-07T01:33:14.883Z,3.80
2018-12-07T01:35:43.680Z,6.13
2018-12-07T01:38:12.444Z,5.20
2018-12-07T01:40:41.159Z,4.60
2018-12-07T01:43:10.827Z,4.23
2018-12-07T01:45:41.414Z,3.27
2018-12-07T01:48:10.157Z,3.50
2018-12-07T01:50:38.920Z,2.43
2018-12-07T01:53:07.738Z,3.60
2018-12-07T01:55:36.460Z,3.07
2018-12-07T01:58:05.205Z,4.20
2018-12-07T02:00:34.137Z,3.93
2018-12-07T02:03:02.966Z,5.37
2018-12-07T02:05:31.791Z,4.00
2018-12-07T02:08:00.547Z,2.93
2018-12-07T02:10:29.300Z,2.93
2018-12-07T02:12:58.119Z,2.23
2018-12-07T02:15:26.873Z,2.43
2018-12-07T02:17:55.595Z,3.10
2018-12-07T02:20:24.318Z,3.50
2018-12-07T02:22:53.040Z,3.17
2018-12-07T02:25:21.871Z,3.10
2018-12-07T02:27:55.941Z,4.33
2018-12-07T02:30:24.841Z,5.70
2018-12-07T02:32:53.568Z,1.97
2018-12-07T02:35:22.405Z,5.20
2018-12-07T02:37:51.218Z,3.90
2018-12-07T02:40:20.048Z,2.53
2018-12-07T02:42:48.753Z,2.87
2018-12-07T02:45:17.498Z,6.37
2018-12-07T02:47:46.241Z,2.03
2018-12-07T02:50:15.009Z,4.00
2018-12-07T02:52:43.750Z,2.10
2018-12-07T02:55:12.511Z,4.27
2018-12-07T02:57:41.280Z,2.87
2018-12-07T03:00:10.238Z,3.27
2018-12-07T03:02:40.997Z,2.17
2018-12-07T03:05:09.758Z,3.47
2018-12-07T03:07:38.535Z,5.23
2018-12-07T03:10:07.424Z,2.43
2018-12-07T03:12:36.225Z,4.37
2018-12-07T03:15:07.033Z,2.27
2018-12-07T03:17:35.784Z,2.90
2018-12-07T03:20:04.924Z,4.03
2018-12-07T03:22:33.766Z,3.57
2018-12-07T03:25:02.555Z,2.83
2018-12-07T03:27:32.788Z,3.37
2018-12-07T03:30:01.543Z,3.90
2018-12-07T03:32:30.441Z,2.20
2018-12-07T03:34:59.218Z,3.97
2018-12-07T03:37:28.824Z,2.50
2018-12-07T03:39:57.592Z,3.77
2018-12-07T03:42:26.324Z,2.83
2018-12-07T03:44:55.400Z,2.57
2018-12-07T03:47:24.225Z,3.37
2018-12-07T03:49:52.975Z,2.23
2018-12-07T03:52:21.746Z,2.77
2018-12-07T03:54:50.508Z,2.67
2018-12-07T03:57:19.284Z,2.70
2018-12-07T03:59:48.016Z,5.87
2018-12-07T04:02:16.953Z,2.87
2018-12-07T04:04:45.821Z,2.33
2018-12-07T04:07:14.545Z,5.33
2018-12-07T04:09:43.289Z,3.00
2018-12-07T04:12:12.065Z,3.23
2018-12-07T04:14:41.225Z,3.03
2018-12-07T04:17:10.049Z,3.43
2018-12-07T04:19:38.855Z,3.00
2018-12-07T04:22:07.660Z,4.80
2018-12-07T04:24:36.510Z,3.53
2018-12-07T04:27:05.321Z,1.97
2018-12-07T04:29:34.109Z,2.10
2018-12-07T04:32:02.946Z,3.77
2018-12-07T04:34:32.010Z,3.53
2018-12-07T04:37:00.790Z,4.43
2018-12-07T04:39:29.525Z,2.43
2018-12-07T04:41:58.257Z,2.97
2018-12-07T04:44:26.969Z,3.40
2018-12-07T04:46:57.843Z,2.67
2018-12-07T04:49:26.573Z,2.57
2018-12-07T04:51:55.337Z,2.70
2018-12-07T04:54:24.055Z,3.40
2018-12-07T04:56:52.874Z,2.80
2018-12-07T04:59:21.613Z,6.57
2018-12-07T05:01:50.394Z,2.43
2018-12-07T05:04:19.142Z,2.43
2018-12-07T05:06:47.865Z,2.60
2018-12-07T05:09:16.605Z,1.63
2018-12-07T05:11:45.361Z,2.20
2018-12-07T05:14:14.113Z,3.20
2018-12-07T05:16:42.851Z,3.50
2018-12-07T05:19:11.889Z,4.90
2018-12-07T05:21:40.655Z,4.17
2018-12-07T05:24:09.365Z,2.23
2018-12-07T05:26:38.442Z,2.10
2018-12-07T05:29:07.189Z,2.80
2018-12-07T05:31:35.961Z,6.90
2018-12-07T05:34:04.728Z,4.23
2018-12-07T05:36:33.548Z,4.80
2018-12-07T05:39:02.493Z,3.23
2018-12-07T05:41:33.297Z,3.93
2018-12-07T05:44:02.074Z,4.00
2018-12-07T05:46:30.877Z,5.07
2018-12-07T05:48:59.627Z,6.67
2018-12-07T05:51:28.372Z,3.80
2018-12-07T05:53:57.441Z,4.87
2018-12-07T05:56:26.465Z,5.10
2018-12-07T05:58:55.201Z,6.97
2018-12-07T06:01:23.978Z,4.13
2018-12-07T06:03:52.695Z,1.33
2018-12-07T06:06:21.509Z,2.10
2018-12-07T06:08:50.394Z,3.47
2018-12-07T06:11:19.136Z,4.07
2018-12-07T06:13:47.872Z,4.63
2018-12-07T06:16:16.614Z,4.47
2018-12-07T06:18:45.420Z,3.00
2018-12-07T06:21:14.158Z,3.33
2018-12-07T06:23:42.946Z,4.37
2018-12-07T06:26:11.661Z,3.67
2018-12-07T06:28:40.409Z,1.90
2018-12-07T06:31:09.134Z,5.07
2018-12-07T06:33:37.885Z,5.60
2018-12-07T06:36:06.640Z,4.13
2018-12-07T06:38:35.369Z,6.77
2018-12-07T06:41:04.157Z,5.17
2018-12-07T06:43:32.881Z,6.60
2018-12-07T06:46:01.605Z,4.73
2018-12-07T06:48:30.392Z,3.77
2018-12-07T06:50:59.137Z,3.80
2018-12-07T06:53:27.882Z,5.77
2018-12-07T06:55:56.690Z,4.70
2018-12-07T06:58:25.445Z,8.00
2018-12-07T07:00:54.254Z,5.90
2018-12-07T07:03:22.984Z,5.10
2018-12-07T07:05:51.711Z,2.87
2018-12-07T07:08:20.509Z,4.13
2018-12-07T07:10:50.576Z,3.67
2018-12-07T07:13:19.332Z,3.27
2018-12-07T07:15:48.132Z,4.60
2018-12-07T07:18:16.866Z,3.97
2018-12-07T07:20:45.796Z,3.20
2018-12-07T07:23:14.591Z,3.97
2018-12-07T07:25:43.358Z,5.57
2018-12-07T07:28:12.085Z,2.37
2018-12-07T07:30:40.860Z,5.10
2018-12-07T07:33:09.604Z,6.47
2018-12-07T07:35:38.341Z,4.93
2018-12-07T07:38:07.068Z,6.70
2018-12-07T07:40:35.828Z,6.07
2018-12-07T07:43:04.660Z,5.27
2018-12-07T07:45:33.370Z,6.47
2018-12-07T07:48:02.206Z,5.20
2018-12-07T07:50:30.945Z,14.13
2018-12-07T07:52:59.699Z,3.93
2018-12-07T07:55:28.433Z,4.27
2018-12-07T07:57:57.265Z,5.33
2018-12-07T08:00:27.029Z,4.97
2018-12-07T08:02:55.763Z,4.93
2018-12-07T08:05:24.536Z,7.43
2018-12-07T08:07:53.465Z,6.70
2018-12-07T08:10:22.191Z,7.00
2018-12-07T08:12:51.045Z,7.23
2018-12-07T08:15:19.799Z,4.10
2018-12-07T08:17:48.601Z,8.43
2018-12-07T08:20:17.391Z,7.50
2018-12-07T08:22:46.174Z,8.50
2018-12-07T08:25:14.945Z,6.30
2018-12-07T08:27:43.892Z,9.90
2018-12-07T08:30:12.871Z,10.53
2018-12-07T08:32:41.710Z,8.30
2018-12-07T08:35:10.618Z,12.97
2018-12-07T08:37:39.488Z,9.43
2018-12-07T08:40:09.423Z,8.90
2018-12-07T08:42:38.169Z,13.87
2018-12-07T08:45:08.578Z,12.83
2018-12-07T08:47:38.329Z,15.10
2018-12-07T08:50:07.889Z,14.57
2018-12-07T08:52:36.683Z,6.80
2018-12-07T08:55:05.916Z,11.23
2018-12-07T08:57:34.668Z,16.00
2018-12-07T09:00:03.982Z,15.10
2018-12-07T09:02:32.739Z,22.50
2018-12-07T09:05:01.964Z,23.13
2018-12-07T09:07:31.846Z,15.47
2018-12-07T09:10:00.773Z,24.00
2018-12-07T09:12:29.526Z,23.83
2018-12-07T09:14:58.293Z,15.30
2018-12-07T09:17:27.050Z,6.83
2018-12-07T09:19:56.379Z,12.73
2018-12-07T09:22:25.289Z,10.30
2018-12-07T09:24:54.096Z,11.93
2018-12-07T09:27:22.828Z,12.17
2018-12-07T09:29:51.603Z,9.87
2018-12-07T09:32:20.398Z,7.53
2018-12-07T09:34:49.185Z,10.00
2018-12-07T09:37:17.932Z,6.57
2018-12-07T09:39:46.801Z,8.43
2018-12-07T09:42:15.593Z,7.77
2018-12-07T09:44:44.387Z,7.60
2018-12-07T09:47:13.363Z,10.37
2018-12-07T09:49:42.110Z,10.17
2018-12-07T09:52:10.842Z,7.93
2018-12-07T09:54:39.621Z,11.70
2018-12-07T09:57:08.368Z,12.23
2018-12-07T09:59:37.118Z,12.07
2018-12-07T10:02:06.253Z,13.27
2018-12-07T10:04:35.021Z,18.30
2018-12-07T10:07:03.792Z,27.67
2018-12-07T10:09:32.583Z,12.60
2018-12-07T10:12:01.334Z,10.80
2018-12-07T10:14:30.158Z,9.43
2018-12-07T10:16:58.932Z,8.07
2018-12-07T10:19:28.086Z,8.13
2018-12-07T10:21:56.848Z,10.37
2018-12-07T10:24:25.628Z,12.30
2018-12-07T10:26:54.415Z,10.10
2018-12-07T10:29:23.225Z,8.50
2018-12-07T10:31:52.260Z,7.97
2018-12-07T10:34:21.034Z,8.17
2018-12-07T10:36:50.284Z,8.13
2018-12-07T10:39:19.021Z,10.00
2018-12-07T10:41:47.749Z,8.80
2018-12-07T10:44:16.504Z,10.93
2018-12-07T10:46:45.232Z,10.43
2018-12-07T10:49:14.040Z,11.23
2018-12-07T10:51:42.804Z,8.57
2018-12-07T10:54:11.572Z,9.47
2018-12-07T10:56:40.352Z,8.37
2018-12-07T10:59:09.101Z,13.60
2018-12-07T11:01:43.211Z,15.43
2018-12-07T11:04:17.262Z,13.73
2018-12-07T11:06:51.502Z,15.57
2018-12-07T11:09:25.613Z,20.90
2018-12-07T11:11:59.864Z,12.73
2018-12-07T11:14:33.944Z,11.87
2018-12-07T11:17:08.161Z,12.23
2018-12-07T11:21:44.185Z,13.07
2018-12-07T11:24:25.044Z,14.10
2018-12-07T11:26:59.285Z,13.27
2018-12-07T11:29:33.562Z,12.37
2018-12-07T11:32:07.945Z,13.53
2018-12-07T11:34:41.149Z,12.03
2018-12-07T11:37:10.244Z,7.87
2018-12-07T11:39:40.101Z,10.87
2018-12-07T11:42:10.567Z,8.83
2018-12-07T11:44:41.209Z,10.13
2018-12-07T11:47:15.981Z,11.10
2018-12-07T11:49:44.311Z,9.73
2018-12-07T11:52:12.677Z,11.00
2018-12-07T11:54:41.252Z,9.17
2018-12-07T11:57:09.774Z,11.43
2018-12-07T11:59:38.087Z,10.23
2018-12-07T12:02:06.444Z,11.07
2018-12-07T12:04:34.744Z,9.90
2018-12-07T12:07:03.449Z,10.90
2018-12-07T12:09:31.892Z,13.00
2018-12-07T12:12:02.234Z,11.47
2018-12-07T12:14:30.648Z,10.03
2018-12-07T12:16:59.069Z,10.87
2018-12-07T12:19:28.438Z,11.53
2018-12-07T12:21:56.738Z,9.27
2018-12-07T12:24:25.184Z,7.93
2018-12-07T12:26:53.609Z,10.63
2018-12-07T12:29:21.884Z,7.33
2018-12-07T12:31:50.221Z,8.67
2018-12-07T12:34:18.577Z,9.83
2018-12-07T12:36:47.104Z,8.87
2018-12-07T12:39:15.681Z,9.23
2018-12-07T12:41:46.914Z,8.33
2018-12-07T12:44:14.413Z,6.63
2018-12-07T12:46:42.808Z,8.07
2018-12-07T12:49:11.116Z,10.60
2018-12-07T12:51:40.688Z,8.90
2018-12-07T12:54:08.968Z,8.37
2018-12-07T12:56:37.236Z,7.70
2018-12-07T12:59:05.520Z,8.40
2018-12-07T13:01:33.934Z,9.17
2018-12-07T13:04:02.307Z,9.20
2018-12-07T13:06:30.636Z,8.60
2018-12-07T13:08:59.052Z,9.10
2018-12-07T13:11:27.364Z,10.17
2018-12-07T13:13:57.432Z,11.47
2018-12-07T13:16:25.851Z,12.60
2018-12-07T13:18:54.204Z,12.57
2018-12-07T13:21:22.541Z,9.10
2018-12-07T13:23:50.870Z,9.37
2018-12-07T13:26:19.172Z,15.20
2018-12-07T13:28:48.042Z,12.50
2018-12-07T13:31:16.875Z,11.23
2018-12-07T13:33:45.288Z,9.73
2018-12-07T13:36:13.645Z,10.87
2018-12-07T13:38:41.916Z,14.30
2018-12-07T13:41:10.241Z,11.13
2018-12-07T13:43:39.931Z,13.87
2018-12-07T13:46:08.447Z,12.20
2018-12-07T13:48:36.944Z,11.57
2018-12-07T13:51:08.281Z,9.83
2018-12-07T13:53:38.169Z,10.40
2018-12-07T13:56:07.034Z,10.73
2018-12-07T13:58:35.575Z,12.03
2018-12-07T14:01:04.089Z,9.10
2018-12-07T14:03:32.683Z,12.00
2018-12-07T14:06:01.313Z,10.37
2018-12-07T14:08:29.729Z,10.03
2018-12-07T14:10:58.159Z,11.40
2018-12-07T14:13:26.653Z,14.90
2018-12-07T14:15:54.978Z,15.43
2018-12-07T14:18:23.381Z,23.20
2018-12-07T14:20:51.703Z,13.37
2018-12-07T14:23:20.064Z,11.87
2018-12-07T14:25:48.559Z,13.80
2018-12-07T14:28:17.132Z,12.57
2018-12-07T14:30:45.937Z,10.03
2018-12-07T14:33:14.365Z,10.77
2018-12-07T14:35:42.913Z,16.43
2018-12-07T14:38:11.330Z,15.83
2018-12-07T14:40:39.749Z,9.23
2018-12-07T14:43:08.170Z,12.50
2018-12-07T14:45:36.509Z,10.47
2018-12-07T14:48:05.113Z,13.17
2018-12-07T14:50:34.510Z,9.70
2018-12-07T14:53:03.015Z,13.53
2018-12-07T14:55:31.421Z,11.67
2018-12-07T14:57:59.874Z,11.83
2018-12-07T15:00:28.424Z,11.13
2018-12-07T15:02:57.013Z,10.77
2018-12-07T15:05:25.511Z,10.13
2018-12-07T15:07:54.173Z,18.87
2018-12-07T15:10:22.740Z,11.40
2018-12-07T15:12:51.102Z,9.40
2018-12-07T15:15:19.667Z,11.50
2018-12-07T15:17:48.149Z,14.17
2018-12-07T15:20:16.540Z,12.23
2018-12-07T15:22:44.894Z,13.77
2018-12-07T15:25:13.325Z,16.80
2018-12-07T15:27:41.793Z,15.57
2018-12-07T15:30:10.241Z,15.73
2018-12-07T15:32:38.844Z,13.13
2018-12-07T15:35:07.996Z,20.70
2018-12-07T15:37:36.344Z,16.33
2018-12-07T15:40:05.948Z,20.63
2018-12-07T15:42:34.452Z,16.30
2018-12-07T15:45:03.042Z,21.40
2018-12-07T15:47:31.728Z,16.03
2018-12-07T15:50:00.006Z,18.50
2018-12-07T15:52:28.366Z,16.40
2018-12-07T15:54:56.817Z,17.67
2018-12-07T15:57:25.366Z,22.63
2018-12-07T15:59:54.108Z,18.67
2018-12-07T16:02:22.700Z,17.77
2018-12-07T16:04:51.263Z,14.50
2018-12-07T16:07:19.701Z,27.70
2018-12-07T16:09:48.293Z,15.83
2018-12-07T16:12:16.774Z,18.27
2018-12-07T16:14:45.307Z,24.87
2018-12-07T16:17:13.830Z,30.10
2018-12-07T16:19:42.355Z,41.60
2018-12-07T16:22:10.730Z,45.57
2018-12-07T16:24:39.158Z,33.77
2018-12-07T16:27:07.577Z,34.13
2018-12-07T16:29:35.914Z,28.50
2018-12-07T16:32:04.366Z,18.20
2018-12-07T16:34:32.906Z,18.37
2018-12-07T16:37:01.332Z,18.77
2018-12-07T16:39:29.670Z,67.63
2018-12-07T16:41:58.158Z,20.57
2018-12-07T16:44:26.738Z,21.40
2018-12-07T16:46:55.403Z,22.10
2018-12-07T16:49:23.956Z,17.83
2018-12-07T16:51:52.349Z,19.47
2018-12-07T16:54:20.756Z,20.20
2018-12-07T16:56:49.446Z,27.90
2018-12-07T16:59:17.801Z,24.97
2018-12-07T17:01:46.409Z,30.73
2018-12-07T17:04:14.909Z,33.87
2018-12-07T17:06:43.556Z,35.20
2018-12-07T17:09:12.113Z,33.70
2018-12-07T17:11:40.891Z,44.03
2018-12-07T17:14:09.384Z,38.80
2018-12-07T17:16:37.724Z,45.53
2018-12-07T17:19:06.054Z,45.77
2018-12-07T17:21:34.613Z,51.00
2018-12-07T17:24:03.169Z,55.47
2018-12-07T17:26:31.587Z,50.03
2018-12-07T17:29:00.045Z,52.47
2018-12-07T17:31:28.499Z,57.90
2018-12-07T17:33:57.022Z,57.33
2018-12-07T17:36:25.682Z,59.03
2018-12-07T17:38:54.152Z,44.53
2018-12-07T17:41:22.773Z,49.13
2018-12-07T17:43:51.319Z,46.17
2018-12-07T17:46:19.717Z,41.40
2018-12-07T17:48:48.098Z,47.97
2018-12-07T17:51:16.596Z,54.70
2018-12-07T17:53:45.227Z,47.10
2018-12-07T17:56:14.510Z,49.67
2018-12-07T17:58:42.926Z,47.77
2018-12-07T18:01:11.297Z,52.83
2018-12-07T18:03:39.762Z,53.43
2018-12-07T18:06:08.318Z,51.13
2018-12-07T18:08:39.325Z,46.33
2018-12-07T18:11:08.405Z,54.30
2018-12-07T18:13:37.326Z,49.10
2018-12-07T18:16:05.747Z,53.03
2018-12-07T18:18:39.511Z,53.00
2018-12-07T18:21:08.438Z,46.93
2018-12-07T18:23:38.747Z,50.27
2018-12-07T18:26:07.244Z,49.07
2018-12-07T18:28:35.674Z,49.67
2018-12-07T18:31:04.362Z,49.83
2018-12-07T18:33:32.784Z,46.63
2018-12-07T18:36:01.193Z,53.47
2018-12-07T18:38:30.137Z,47.33
2018-12-07T18:40:58.714Z,40.30
2018-12-07T18:43:27.138Z,47.87
2018-12-07T18:45:55.529Z,46.93
2018-12-07T18:48:25.281Z,43.33
2018-12-07T18:50:54.148Z,51.77
2018-12-07T18:53:22.577Z,52.13
2018-12-07T18:55:50.868Z,55.93
2018-12-07T18:58:19.874Z,51.90
2018-12-07T19:00:48.278Z,52.90
2018-12-07T19:03:17.797Z,46.97
2018-12-07T19:05:46.376Z,51.97
2018-12-07T19:08:14.873Z,50.70
2018-12-07T19:10:43.344Z,42.97
2018-12-07T19:13:11.858Z,41.93
2018-12-07T19:15:40.244Z,48.60
2018-12-07T19:18:08.765Z,46.00
2018-12-07T19:20:37.208Z,44.27
2018-12-07T19:23:09.119Z,42.17
2018-12-07T19:25:37.768Z,45.50
2018-12-07T19:28:08.329Z,47.57
2018-12-07T19:30:37.026Z,52.67
2018-12-07T19:33:05.464Z,48.93
2018-12-07T19:35:33.797Z,45.77
2018-12-07T19:38:02.295Z,52.40
2018-12-07T19:40:30.738Z,46.83
2018-12-07T19:42:59.314Z,55.67
2018-12-07T19:45:27.932Z,47.97
2018-12-07T19:47:56.333Z,48.43
2018-12-07T19:50:24.841Z,51.90
2018-12-07T19:52:53.845Z,52.37
2018-12-07T19:55:22.916Z,47.17
2018-12-07T19:57:51.312Z,48.17
2018-12-07T20:00:19.870Z,51.23
2018-12-07T20:02:50.421Z,48.30
2018-12-07T20:05:18.602Z,49.13
2018-12-07T20:07:47.162Z,58.50
2018-12-07T20:10:15.669Z,48.33
2018-12-07T20:12:44.068Z,47.13
2018-12-07T20:15:12.497Z,53.10
2018-12-07T20:17:40.981Z,56.37
2018-12-07T20:20:09.491Z,54.37
2018-12-07T20:22:38.062Z,59.17
2018-12-07T20:25:06.636Z,49.53
2018-12-07T20:27:35.112Z,50.13
2018-12-07T20:30:04.150Z,56.30
2018-12-07T20:32:32.874Z,54.83
2018-12-07T20:35:01.529Z,57.43
2018-12-07T20:37:30.891Z,57.73
2018-12-07T20:39:59.307Z,50.83
2018-12-07T20:42:27.923Z,60.13
2018-12-07T20:44:56.331Z,56.57
2018-12-07T20:47:25.389Z,55.77
2018-12-07T20:49:54.279Z,57.30
2018-12-07T20:52:23.060Z,61.17
2018-12-07T20:54:51.363Z,59.80
2018-12-07T20:57:19.876Z,64.90
2018-12-07T20:59:48.477Z,55.33
2018-12-07T21:02:16.971Z,57.30
2018-12-07T21:04:45.361Z,54.90
2018-12-07T21:07:32.720Z,52.73
2018-12-07T21:10:32.560Z,56.90
2018-12-07T21:13:31.287Z,56.17
2018-12-07T21:17:07.612Z,49.33
2018-12-07T21:19:37.647Z,52.40
2018-12-07T21:22:06.209Z,51.57
2018-12-07T21:24:34.871Z,53.23
2018-12-07T21:27:03.492Z,50.90
2018-12-07T21:29:31.995Z,54.10
2018-12-07T21:32:02.027Z,52.70
2018-12-07T21:34:41.515Z,48.03
2018-12-07T21:37:10.065Z,51.03
2018-12-07T21:39:47.084Z,52.80
2018-12-07T21:42:15.561Z,46.27
2018-12-07T21:44:43.964Z,46.53
2018-12-07T21:47:12.450Z,49.63
2018-12-07T21:49:49.182Z,44.63
2018-12-07T21:52:21.497Z,46.93
2018-12-07T21:54:50.028Z,51.43
2018-12-07T21:57:18.567Z,51.53
2018-12-07T21:59:46.908Z,44.33
2018-12-07T22:02:15.646Z,51.93
2018-12-07T22:04:51.135Z,46.57
2018-12-07T22:07:19.589Z,51.63
2018-12-07T22:09:48.074Z,48.13
2018-12-07T22:12:16.641Z,43.73
2018-12-07T22:14:45.552Z,48.87
2018-12-07T22:17:13.968Z,43.30
2018-12-07T22:19:42.405Z,50.00
2018-12-07T22:22:10.937Z,48.37
2018-12-07T22:24:39.625Z,54.77
2018-12-07T22:27:07.992Z,47.33
2018-12-07T22:29:36.492Z,47.50
2018-12-07T22:32:05.540Z,48.07
2018-12-07T22:34:34.107Z,41.33
2018-12-07T22:37:02.782Z,50.57
2018-12-07T22:39:31.272Z,46.73
2018-12-07T22:41:59.716Z,46.70
2018-12-07T22:44:28.341Z,51.13
2018-12-07T22:46:57.038Z,49.93
2018-12-07T22:49:25.359Z,48.03
2018-12-07T22:51:53.632Z,50.37
2018-12-07T22:54:21.909Z,51.43
2018-12-07T22:56:50.219Z,45.90
2018-12-07T22:59:18.569Z,43.27
2018-12-07T23:01:47.041Z,48.77
2018-12-07T23:04:15.481Z,48.73
2018-12-07T23:06:43.840Z,54.00
2018-12-07T23:09:12.136Z,50.80
2018-12-07T23:11:40.476Z,52.00
2018-12-07T23:14:08.876Z,48.67
2018-12-07T23:16:37.134Z,46.63
2018-12-07T23:19:06.438Z,50.23
2018-12-07T23:21:34.756Z,51.57
2018-12-07T23:24:03.039Z,51.03
2018-12-07T23:26:31.497Z,47.93
2018-12-07T23:28:59.808Z,51.17
2018-12-07T23:31:34.616Z,49.77
2018-12-07T23:34:02.936Z,51.50
2018-12-07T23:36:31.260Z,48.03
2018-12-07T23:38:59.538Z,47.30
2018-12-07T23:41:27.868Z,50.70
2018-12-07T23:43:56.162Z,49.70
2018-12-07T23:46:24.444Z,50.53
2018-12-07T23:48:52.732Z,47.97
2018-12-07T23:51:21.040Z,55.17
2018-12-07T23:53:49.380Z,45.93
2018-12-07T23:56:17.643Z,45.70
2018-12-07T23:58:45.939Z,48.37
